Latest Weather Observations for Deniliquin

IDN60801

Issued at 2:33 pm EST Thursday 28 July 2016 (issued every 30 minutes, with the page automatically refreshed every 10 minutes)

About weather observations | Map of weather stations | Latest weather observations for NSW | Other Formats
Station Details ID: 074258 Name: DENILIQUIN AIRPORT AWS Lat: -35.56 Lon: 144.95 Height: 94.0 m
Data from the previous 72 hours. | See also: Recent months at Deniliquin
Date/Time
EST
Temp
°C
App
Temp
°C
Dew
Point
°C
Rel
Hum
%
Delta-T
°C
Wind Press
QNH
hPa
Press
MSL
hPa
Rain since
9am
mm
Dir  Spd
km/h
Gust
km/h
Spd
kts
Gust
kts
28/02:30pm 11.8 7.7 7.7 76 2.0 W 19 24 10 13 1025.8 1026.0 0.0
28/02:00pm 12.0 7.5 6.9 71 2.4 W 20 30 11 16 1026.0 1026.2 0.0
28/01:30pm 12.1 8.5 8.2 77 1.9 WNW 17 24 9 13 1026.1 1026.3 0.0
28/01:00pm 11.8 8.6 8.3 79 1.7 WNW 15 20 8 11 1026.6 1026.8 0.0
28/12:30pm 11.9 7.5 7.6 75 2.1 W 20 28 11 15 1026.8 1027.0 0.0
28/12:00pm 11.9 7.3 8.0 77 1.9 W 22 33 12 18 1027.4 1027.6 0.0
28/11:30am 11.8 7.5 7.1 73 2.3 W 19 26 10 14 1027.8 1028.0 0.0
28/11:00am 11.3 6.8 7.0 75 2.0 WNW 20 24 11 13 1028.0 1028.2 0.0
28/10:30am 10.9 6.6 7.2 78 1.8 WNW 19 24 10 13 1027.9 1028.1 0.0
28/10:00am 10.3 6.4 7.0 80 1.6 WNW 17 20 9 11 1027.7 1027.9 0.0
28/09:30am 10.0 6.1 6.9 81 1.5 WNW 17 26 9 14 1027.7 1027.9 0.0
28/09:00am 9.4 5.4 6.5 82 1.3 W 17 22 9 12 1027.7 1027.9 0.2
28/08:30am 8.9 5.6 6.2 83 1.2 WNW 13 17 7 9 1027.6 1027.8 0.2
28/08:00am 8.6 5.6 6.1 84 1.1 WNW 11 15 6 8 1027.4 1027.6 0.2
28/07:30am 8.3 5.3 6.1 86 1.0 WNW 11 15 6 8 1027.1 1027.3 0.2
28/07:00am 8.3 4.9 5.9 85 1.1 WNW 13 15 7 8 1026.8 1027.0 0.2
28/06:30am 8.4 5.0 5.7 83 1.2 WNW 13 20 7 11 1026.3 1026.5 0.2
28/06:00am 8.4 4.9 5.5 82 1.3 W 13 17 7 9 1026.1 1026.3 0.2
28/05:30am 8.4 4.9 5.3 81 1.4 W 13 17 7 9 1025.9 1026.1 0.2
28/05:00am 8.2 4.7 5.3 82 1.3 W 13 17 7 9 1025.5 1025.7 0.2
28/04:30am 7.9 4.4 5.5 85 1.1 WNW 13 17 7 9 1025.4 1025.6 0.2
28/04:00am 7.6 4.0 5.2 85 1.1 NW 13 17 7 9 1025.2 1025.4 0.2
28/03:30am 7.5 3.9 5.0 84 1.1 WNW 13 17 7 9 1025.2 1025.4 0.2
28/03:00am 7.9 4.4 5.4 84 1.1 W 13 17 7 9 1025.3 1025.5 0.2
28/02:30am 8.2 4.6 5.1 81 1.4 W 13 17 7 9 1025.3 1025.5 0.2
28/02:00am 8.3 4.4 5.2 81 1.4 W 15 20 8 11 1025.4 1025.6 0.2
28/01:30am 8.3 5.1 5.2 81 1.4 WNW 11 13 6 7 1025.2 1025.4 0.2
28/01:00am 8.2 4.6 5.1 81 1.4 WNW 13 19 7 10 1025.0 1025.2 0.2
28/12:30am 8.0 4.4 5.1 82 1.3 WNW 13 15 7 8 1025.0 1025.2 0.2
28/12:00am 7.9 3.9 5.0 82 1.3 WNW 15 19 8 10 1025.0 1025.2 0.2
 
Date/Time
EST
Temp
°C
App
Temp
°C
Dew
Point
°C
Rel
Hum
%
Delta-T
°C
Wind Press
QNH
hPa
Press
MSL
hPa
Rain since
9am
mm
Dir  Spd
km/h
Gust
km/h
Spd
kts
Gust
kts
27/11:30pm 7.7 4.1 5.0 83 1.2 W 13 15 7 8 1025.2 1025.4 0.2
27/11:00pm 7.2 3.6 5.0 86 1.0 WNW 13 17 7 9 1025.0 1025.2 0.2
27/10:30pm 6.8 3.2 4.8 87 0.9 W 13 19 7 10 1025.1 1025.3 0.2
27/10:00pm 6.4 2.7 4.6 88 0.8 W 13 15 7 8 1025.1 1025.3 0.2
27/09:30pm 6.9 3.2 4.7 86 1.0 WNW 13 17 7 9 1024.7 1024.9 0.2
27/09:00pm 7.4 3.0 5.0 85 1.1 W 17 22 9 12 1024.2 1024.4 0.2
27/08:30pm 8.2 4.0 5.5 83 1.2 W 17 20 9 11 1024.1 1024.3 0.2
27/08:00pm 8.7 4.0 5.3 79 1.5 W 19 24 10 13 1023.5 1023.7 0.2
27/07:30pm 8.9 4.7 5.6 80 1.5 W 17 22 9 12 1023.3 1023.5 0.2
27/07:00pm 9.5 4.8 5.3 75 1.9 W 19 24 10 13 1022.9 1023.1 0.2
27/06:30pm 9.7 5.2 5.9 77 1.8 W 19 22 10 12 1022.5 1022.7 0.2
27/06:00pm 9.6 5.5 6.0 78 1.7 WSW 17 20 9 11 1022.1 1022.3 0.2
27/05:30pm 10.2 5.6 5.6 73 2.1 SW 19 26 10 14 1021.5 1021.7 0.2
27/05:00pm 10.2 6.7 7.3 82 1.4 SW 15 20 8 11 1021.1 1021.3 0.2
27/04:30pm 10.9 6.5 7.4 79 1.7 SW 20 28 11 15 1020.4 1020.6 0.2
27/04:00pm 11.2 4.9 7.3 77 1.9 SW 30 35 16 19 1019.9 1020.1 0.2
27/03:30pm 11.4 5.6 7.9 79 1.7 SW 28 37 15 20 1019.4 1019.6 0.2
27/03:00pm 11.5 4.9 7.6 77 1.9 SW 32 44 17 24 1018.8 1019.0 0.2
27/02:30pm 11.1 6.2 9.9 92 0.6 WSW 26 35 14 19 1018.3 1018.5 0.2
27/02:00pm 11.7 8.5 9.8 88 1.0 W 17 20 9 11 1017.8 1018.0 0.2
27/01:30pm 11.9 8.5 9.1 83 1.4 W 17 24 9 13 1017.6 1017.7 0.0
27/01:00pm 11.1 7.0 8.7 85 1.2 WSW 20 39 11 21 1017.5 1017.6 0.0
27/12:30pm 11.8 7.8 9.0 83 1.4 W 20 28 11 15 1017.6 1017.7 0.0
27/12:00pm 11.1 6.2 8.5 84 1.3 W 24 30 13 16 1017.5 1017.6 0.0
27/11:30am 10.6 5.6 8.0 84 1.3 W 24 32 13 17 1017.6 1017.7 0.0
27/11:00am 10.4 6.1 8.0 85 1.2 W 20 28 11 15 1017.2 1017.3 0.0
27/10:30am 9.7 4.7 8.0 89 0.8 WSW 24 32 13 17 1016.9 1017.0 0.0
27/10:00am 9.3 4.7 8.1 92 0.6 WSW 22 28 12 15 1016.3 1016.4 0.0
27/09:30am 9.2 5.0 8.1 93 0.5 W 20 26 11 14 1015.6 1015.7 0.0
27/09:00am 8.9 4.7 8.3 96 0.3 W 20 26 11 14 1014.9 1015.1 2.2
27/08:30am 8.5 5.3 8.4 99 0.0 W 15 20 8 11 1014.3 1014.5 2.2
27/08:00am 8.4 4.3 8.0 97 0.2 W 19 26 10 14 1013.9 1014.1 2.2
27/07:30am 8.3 4.0 7.9 97 0.2 W 20 26 11 14 1013.3 1013.5 2.2
27/07:00am 8.4 3.8 8.0 97 0.2 W 22 30 12 16 1012.7 1012.9 2.2
27/06:30am 8.4 2.6 7.8 96 0.3 W 28 37 15 20 1011.9 1012.1 2.2
27/06:00am 8.6 3.2 8.2 97 0.2 W 26 33 14 18 1011.2 1011.4 2.2
27/05:30am 8.3 2.6 8.3 100 0.0 W 28 39 15 21 1010.6 1010.8 2.2
27/05:00am 8.4 3.5 8.4 100 0.0 W 24 32 13 17 1010.0 1010.2 2.0
27/04:30am 8.6 3.7 8.5 99 0.0 WNW 24 35 13 19 1009.4 1009.6 1.8
27/04:00am 8.7 3.0 8.3 97 0.2 WNW 28 39 15 21 1008.9 1009.1 1.8
27/03:30am 9.2 3.3 7.6 90 0.8 WNW 28 43 15 23 1008.5 1008.6 1.6
27/03:00am 9.2 3.7 7.6 90 0.8 NW 26 37 14 20 1008.5 1008.6 1.6
27/02:30am 9.1 5.0 7.9 92 0.6 WNW 19 26 10 14 1008.6 1008.7 1.6
27/02:00am 9.2 3.8 7.8 91 0.7 NW 26 37 14 20 1008.4 1008.5 1.6
27/01:30am 8.9 2.7 8.0 94 0.4 NNW 30 41 16 22 1008.2 1008.3 1.6
27/01:00am 8.4 2.6 7.8 96 0.3 NNW 28 35 15 19 1008.4 1008.5 1.4
27/12:30am 8.3 2.7 7.2 93 0.5 N 26 35 14 19 1008.7 1008.8 1.0
27/12:00am 8.2 3.2 6.5 89 0.8 N 22 30 12 16 1009.0 1009.2 1.0
 
Date/Time
EST
Temp
°C
App
Temp
°C
Dew
Point
°C
Rel
Hum
%
Delta-T
°C
Wind Press
QNH
hPa
Press
MSL
hPa
Rain since
9am
mm
Dir  Spd
km/h
Gust
km/h
Spd
kts
Gust
kts
26/11:30pm 8.1 3.6 6.2 88 0.9 N 19 26 10 14 1009.5 1009.7 0.8
26/11:00pm 8.3 3.7 5.6 83 1.2 N 19 28 10 15 1010.0 1010.2 0.6
26/10:30pm 8.6 3.9 5.0 78 1.6 N 19 26 10 14 1010.3 1010.5 0.2
26/10:00pm 8.6 4.2 4.8 77 1.7 N 17 22 9 12 1010.6 1010.8 0.2
26/09:30pm 8.7 3.6 4.3 74 1.9 N 20 26 11 14 1011.0 1011.2 0.2
26/09:00pm 8.7 3.8 3.9 72 2.1 N 19 24 10 13 1011.2 1011.4 0.2
26/08:30pm 8.7 4.1 3.7 71 2.2 N 17 24 9 13 1011.3 1011.5 0.2
26/08:00pm 9.3 4.3 3.7 68 2.5 N 19 28 10 15 1011.6 1011.8 0.2
26/07:30pm 9.3 5.1 3.9 69 2.4 N 15 20 8 11 1011.8 1012.0 0.2
26/07:00pm 9.7 5.2 4.1 68 2.5 N 17 24 9 13 1012.4 1012.6 0.2
26/06:30pm 9.6 5.8 3.8 67 2.5 N 13 19 7 10 1012.5 1012.7 0.2
26/06:00pm 9.9 5.8 4.1 67 2.6 N 15 20 8 11 1012.4 1012.6 0.2
26/05:30pm 10.1 5.6 4.3 67 2.6 NNW 17 20 9 11 1012.7 1012.9 0.2
26/05:00pm 10.3 5.8 4.2 66 2.7 N 17 26 9 14 1012.5 1012.7 0.2
26/04:30pm 10.6 5.5 4.1 64 2.9 NNW 20 30 11 16 1012.7 1012.9 0.2
26/04:00pm 10.7 5.4 4.8 67 2.7 NNW 22 28 12 15 1013.0 1013.2 0.2
26/03:30pm 11.3 6.2 4.3 62 3.2 NW 20 32 11 17 1013.4 1013.6 0.2
26/03:00pm 10.7 4.9 4.4 65 2.8 NW 24 37 13 20 1013.6 1013.8 0.2
26/02:30pm 11.3 5.2 4.7 64 3.0 NNW 26 33 14 18 1013.5 1013.7 0.2
26/02:00pm 10.9 5.8 5.9 71 2.3 NW 22 32 12 17 1014.2 1014.4 0.2
26/01:30pm 10.4 4.7 4.8 68 2.5 NNW 24 32 13 17 1014.7 1014.9 0.2
26/01:00pm 10.4 4.0 5.2 70 2.4 NNW 28 35 15 19 1015.0 1015.2 0.2
26/12:30pm 10.9 5.3 5.4 69 2.5 NNW 24 33 13 18 1015.7 1015.8 0.2
26/12:00pm 10.6 6.8 6.0 73 2.1 NNW 15 24 8 13 1016.3 1016.4 0.2
26/11:30am 9.7 5.7 5.1 73 2.1 NW 15 20 8 11 1016.8 1016.9 0.2
26/11:00am 9.1 4.5 5.5 78 1.6 NW 19 24 10 13 1017.1 1017.2 0.2
26/10:30am 8.4 4.0 4.6 77 1.7 NW 17 20 9 11 1017.3 1017.4 0.0
26/10:00am 8.0 3.0 4.8 80 1.4 NW 20 28 11 15 1017.3 1017.4 0.0
26/09:30am 7.3 2.9 4.6 83 1.2 NW 17 24 9 13 1017.1 1017.2 0.0
26/09:00am 6.3 1.9 4.5 88 0.8 NNW 17 22 9 12 1017.0 1017.1 0.8
26/08:30am 5.3 1.6 4.4 94 0.4 NNW 13 17 7 9 1016.8 1016.9 0.8
26/08:00am 4.4 0.6 4.1 98 0.1 NNW 13 17 7 9 1016.6 1016.7 0.8
26/07:30am 4.2 0.8 3.8 97 0.2 N 11 13 6 7 1016.5 1016.6 0.8
26/07:00am 4.4 0.6 4.1 98 0.1 NNW 13 15 7 8 1016.0 1016.1 0.8
26/06:30am 4.7 0.6 4.3 97 0.2 N 15 17 8 9 1015.8 1015.9 0.8
26/06:00am 5.1 1.8 4.7 97 0.2 N 11 13 6 7 1015.6 1015.7 0.8
26/05:30am 5.6 1.6 4.7 94 0.4 NW 15 19 8 10 1015.0 1015.2 0.8
26/05:00am 5.8 1.8 5.1 95 0.3 NW 15 20 8 11 1014.8 1015.0 0.8
26/04:30am 5.9 1.6 5.3 96 0.3 NW 17 19 9 10 1014.5 1014.7 0.8
26/04:00am 6.1 2.5 5.2 94 0.4 NW 13 19 7 10 1014.3 1014.5 0.8
26/03:30am 5.7 2.0 4.7 93 0.4 NW 13 17 7 9 1014.3 1014.5 0.8
26/03:00am 5.9 2.2 4.4 90 0.6 WNW 13 17 7 9 1014.3 1014.5 0.8
26/02:30am 6.8 2.4 4.6 86 1.0 WNW 17 22 9 12 1014.1 1014.3 0.8
26/02:00am 7.2 2.4 4.9 85 1.0 WNW 19 24 10 13 1014.1 1014.3 0.8
26/01:30am 7.7 2.9 5.8 88 0.9 W 20 28 11 15 1014.0 1014.2 0.8
26/01:00am 8.5 4.1 7.6 94 0.4 WNW 20 26 11 14 1013.4 1013.6 0.8
26/12:30am 8.5 4.9 8.2 98 0.1 WNW 17 20 9 11 1013.2 1013.4 0.8
26/12:00am 8.8 4.9 8.5 98 0.1 WNW 19 22 10 12 1012.8 1013.0 0.8
 
Date/Time
EST
Temp
°C
App
Temp
°C
Dew
Point
°C
Rel
Hum
%
Delta-T
°C
Wind Press
QNH
hPa
Press
MSL
hPa
Rain since
9am
mm
Dir  Spd
km/h
Gust
km/h
Spd
kts
Gust
kts
25/11:30pm 8.9 5.0 8.6 98 0.1 WNW 19 24 10 13 1012.7 1012.9 0.8
25/11:00pm 8.8 4.7 8.8 100 0.0 NW 20 26 11 14 1012.5 1012.7 0.8
25/10:30pm 8.7 4.6 8.6 99 0.0 NW 20 26 11 14 1012.4 1012.6 0.8
25/10:00pm 9.0 3.4 7.3 89 0.8 WNW 26 35 14 19 1012.5 1012.7 0.4
25/09:30pm 10.5 3.4 5.5 71 2.3 W 32 46 17 25 1012.0 1012.2 0.2
25/09:13pm 11.4 4.8 4.2 61 3.2 NW 28 52 15 28 1011.4 1011.6 0.2
25/09:00pm 11.2 5.4 4.4 63 3.1 NW 24 32 13 17 1011.3 1011.5 0.2
25/08:30pm 11.3 4.0 4.5 63 3.1 NNW 32 44 17 24 1011.0 1011.2 0.2
25/08:00pm 11.5 3.3 4.5 62 3.2 NNW 37 52 20 28 1010.6 1010.8 0.2
25/07:50pm 11.7 3.8 4.4 61 3.3 NNW 35 54 19 29 1010.6 1010.8 0.2
25/07:30pm 11.6 4.1 4.6 62 3.2 NNW 33 46 18 25 1010.6 1010.8 0.2
25/07:00pm 11.5 4.2 4.7 63 3.1 NNW 32 44 17 24 1010.6 1010.8 0.2
25/06:30pm 11.4 5.0 5.3 66 2.8 NNW 28 39 15 21 1010.8 1011.0 0.2
25/06:00pm 11.4 5.7 5.1 65 2.9 NNW 24 32 13 17 1011.1 1011.3 0.2
25/05:30pm 11.3 4.9 5.0 65 2.9 NNW 28 41 15 22 1011.0 1011.2 0.2
25/05:00pm 12.1 6.0 4.8 61 3.4 NW 26 35 14 19 1011.3 1011.5 0.2
25/04:30pm 12.5 7.3 5.4 62 3.3 NW 22 32 12 17 1011.0 1011.2 0.2
25/04:00pm 12.4 6.1 5.6 63 3.2 NW 28 41 15 22 1011.3 1011.5 0.2
25/03:30pm 12.7 6.4 5.6 62 3.3 NW 28 41 15 22 1011.1 1011.3 0.2
25/03:00pm 12.7 7.8 5.1 60 3.5 NW 20 28 11 15 1011.2 1011.4 0.2

Other Formats:

Comma delimited format used in spreadsheet applications
http://www.bom.gov.au/fwo/IDN60801/IDN60801.95869.axf

JavaScript Object Notation format (JSON) in row-major order
http://www.bom.gov.au/fwo/IDN60801/IDN60801.95869.json